createdAt,value
2019-05-14T00:00:12.125Z,99.90
2019-05-14T00:02:41.326Z,99.90
2019-05-14T00:05:12.095Z,99.90
2019-05-14T00:08:02.287Z,99.90
2019-05-14T00:10:32.191Z,99.90
2019-05-14T00:13:01.669Z,99.90
2019-05-14T00:15:32.232Z,99.90
2019-05-14T00:18:01.382Z,99.90
2019-05-14T00:20:31.533Z,99.90
2019-05-14T00:23:01.847Z,99.90
2019-05-14T00:28:23.771Z,99.90
2019-05-14T00:47:14.946Z,99.90
2019-05-14T00:49:43.385Z,99.90
2019-05-14T00:52:12.007Z,99.90
2019-05-14T00:54:41.873Z,99.90
2019-05-14T00:57:11.855Z,99.90
2019-05-14T00:59:41.777Z,99.90
2019-05-14T01:02:11.635Z,99.90
2019-05-14T01:04:42.513Z,99.90
2019-05-14T01:07:11.859Z,99.90
2019-05-14T01:09:42.119Z,99.90
2019-05-14T01:12:12.163Z,99.90
2019-05-14T01:14:42.449Z,99.90
2019-05-14T01:17:11.352Z,99.90
2019-05-14T01:19:42.170Z,99.90
2019-05-14T01:22:12.218Z,99.90
2019-05-14T01:24:41.736Z,99.90
2019-05-14T01:27:12.343Z,99.90
2019-05-14T01:29:42.406Z,99.90
2019-05-14T01:32:11.631Z,99.90
2019-05-14T01:34:41.997Z,99.90
2019-05-14T01:37:11.760Z,99.90
2019-05-14T01:39:41.760Z,99.90
2019-05-14T01:42:12.604Z,99.90
2019-05-14T01:44:41.468Z,99.90
2019-05-14T01:47:12.396Z,99.90
2019-05-14T01:49:42.480Z,99.90
2019-05-14T01:52:11.298Z,99.90
2019-05-14T01:54:42.469Z,99.90
2019-05-14T01:57:11.473Z,99.90
2019-05-14T01:59:42.586Z,99.90
2019-05-14T02:02:11.571Z,99.90
2019-05-14T02:04:42.680Z,99.90
2019-05-14T02:07:11.576Z,99.90
2019-05-14T02:09:41.959Z,99.90
2019-05-14T02:12:11.726Z,99.90
2019-05-14T02:14:42.433Z,99.90
2019-05-14T02:17:12.439Z,99.90
2019-05-14T02:19:42.569Z,99.90
2019-05-14T02:22:11.339Z,99.90
2019-05-14T02:24:41.780Z,99.90
2019-05-14T02:27:12.343Z,99.90
2019-05-14T02:29:41.597Z,99.90
2019-05-14T02:32:10.867Z,99.90
2019-05-14T02:34:40.230Z,99.90
2019-05-14T02:37:09.493Z,99.90
2019-05-14T02:39:41.097Z,99.90
2019-05-14T02:42:09.356Z,99.90
2019-05-14T02:44:40.814Z,99.90
2019-05-14T02:47:09.864Z,99.90
2019-05-14T02:49:39.796Z,99.90
2019-05-14T02:52:10.093Z,99.90
2019-05-14T02:54:40.459Z,99.90
2019-05-14T02:57:10.654Z,99.90
2019-05-14T02:59:39.837Z,99.90
2019-05-14T03:02:09.997Z,99.90
2019-05-14T03:04:39.465Z,99.90
2019-05-14T03:07:10.854Z,99.90
2019-05-14T03:09:40.314Z,99.90
2019-05-14T03:12:10.146Z,99.90
2019-05-14T03:14:39.790Z,99.90
2019-05-14T03:17:10.346Z,99.90
2019-05-14T03:19:40.607Z,99.90
2019-05-14T03:22:10.222Z,99.90
2019-05-14T03:24:59.807Z,99.90
2019-05-14T03:27:30.538Z,99.90
2019-05-14T03:29:58.656Z,99.90
2019-05-14T03:32:32.378Z,99.90
2019-05-14T03:35:02.816Z,99.90
2019-05-14T03:37:30.970Z,99.90
2019-05-14T03:39:59.461Z,99.90
2019-05-14T03:42:29.179Z,99.90
2019-05-14T03:44:59.721Z,99.90
2019-05-14T03:47:29.794Z,99.90
2019-05-14T03:49:58.862Z,99.90
2019-05-14T03:52:29.247Z,99.90
2019-05-14T03:55:01.300Z,99.90
2019-05-14T03:57:29.221Z,99.90
2019-05-14T03:59:59.713Z,99.90
2019-05-14T04:02:29.678Z,99.90
2019-05-14T04:04:59.995Z,99.90
2019-05-14T04:07:33.403Z,99.90
2019-05-14T04:10:03.076Z,99.90
2019-05-14T04:12:34.015Z,99.90
2019-05-14T04:15:06.025Z,99.90
2019-05-14T04:17:41.001Z,99.90
2019-05-14T04:20:09.523Z,99.90
2019-05-14T04:22:44.076Z,99.90
2019-05-14T04:25:12.630Z,99.90
2019-05-14T04:27:41.517Z,99.90
2019-05-14T04:30:11.669Z,99.90
2019-05-14T04:32:41.371Z,99.90
2019-05-14T04:35:10.613Z,99.90
2019-05-14T04:37:40.230Z,99.90
2019-05-14T04:40:10.332Z,99.90
2019-05-14T04:42:40.082Z,99.90
2019-05-14T04:45:10.915Z,99.90
2019-05-14T04:47:41.949Z,99.90
2019-05-14T04:50:10.807Z,99.90
2019-05-14T04:52:40.506Z,99.90
2019-05-14T04:55:09.922Z,99.90
2019-05-14T04:57:39.427Z,99.90
2019-05-14T05:00:12.192Z,99.90
2019-05-14T05:02:39.876Z,99.90
2019-05-14T05:05:09.323Z,99.90
2019-05-14T05:07:42.635Z,99.90
2019-05-14T05:10:11.148Z,99.90
2019-05-14T05:12:39.560Z,99.90
2019-05-14T05:15:09.269Z,99.90
2019-05-14T05:17:47.090Z,99.90
2019-05-14T05:20:09.909Z,99.90
2019-05-14T05:22:39.631Z,99.90
2019-05-14T05:25:08.462Z,99.90
2019-05-14T05:27:38.208Z,99.90
2019-05-14T05:30:08.508Z,99.90
2019-05-14T05:32:38.823Z,99.90
2019-05-14T05:35:09.504Z,99.90
2019-05-14T05:37:38.434Z,99.90
2019-05-14T05:40:09.194Z,99.90
2019-05-14T05:42:38.605Z,99.90
2019-05-14T05:45:08.207Z,99.90
2019-05-14T05:47:38.832Z,99.90
2019-05-14T05:50:08.848Z,99.90
2019-05-14T05:52:38.747Z,99.90
2019-05-14T05:55:08.986Z,99.90
2019-05-14T05:57:39.204Z,99.90
2019-05-14T06:00:31.726Z,99.90
2019-05-14T06:03:01.266Z,99.90
2019-05-14T06:05:33.077Z,99.90
2019-05-14T06:08:03.163Z,99.90
2019-05-14T06:10:33.133Z,99.90
2019-05-14T06:13:03.126Z,99.90
2019-05-14T06:15:44.740Z,99.90
2019-05-14T06:18:15.184Z,99.90
2019-05-14T06:20:33.450Z,99.90
2019-05-14T06:23:01.971Z,99.90
2019-05-14T06:25:40.194Z,99.90
2019-05-14T06:28:08.819Z,99.90
2019-05-14T06:30:39.798Z,99.90
2019-05-14T06:33:09.255Z,99.90
2019-05-14T06:35:39.666Z,99.90
2019-05-14T06:38:08.906Z,99.90
2019-05-14T06:40:39.584Z,99.90
2019-05-14T06:43:09.187Z,99.90
2019-05-14T06:45:38.834Z,99.90
2019-05-14T06:48:08.719Z,99.90
2019-05-14T06:50:39.195Z,99.90
2019-05-14T06:53:08.485Z,99.90
2019-05-14T06:55:39.259Z,99.90
2019-05-14T06:58:09.190Z,99.90
2019-05-14T07:00:58.709Z,99.90
2019-05-14T07:03:28.120Z,99.90
2019-05-14T07:06:18.800Z,99.90
2019-05-14T07:08:50.553Z,99.90
2019-05-14T07:11:19.162Z,99.90
2019-05-14T07:13:49.105Z,99.90
2019-05-14T07:16:19.687Z,99.90
2019-05-14T07:18:53.158Z,99.90
2019-05-14T07:21:18.752Z,99.90
2019-05-14T07:23:48.916Z,99.90
2019-05-14T07:26:38.763Z,99.90
2019-05-14T07:29:11.238Z,99.90
2019-05-14T07:31:38.641Z,99.90
2019-05-14T07:34:08.950Z,99.90
2019-05-14T07:36:38.711Z,99.90
2019-05-14T07:39:09.455Z,99.90
2019-05-14T07:41:38.950Z,99.80
2019-05-14T07:44:09.237Z,99.90
2019-05-14T07:46:39.000Z,99.10
2019-05-14T07:49:11.426Z,99.30
2019-05-14T07:51:38.834Z,98.60
2019-05-14T07:54:08.476Z,98.60
2019-05-14T07:56:38.480Z,98.60
2019-05-14T07:59:08.907Z,98.60
2019-05-14T08:01:38.886Z,98.60
2019-05-14T08:04:11.039Z,98.50
2019-05-14T08:06:39.357Z,99.60
2019-05-14T08:09:09.575Z,99.20
2019-05-14T08:11:38.849Z,99.40
2019-05-14T08:14:09.046Z,99.50
2019-05-14T08:16:38.105Z,99.90
2019-05-14T08:19:22.995Z,99.90
2019-05-14T08:21:38.717Z,99.60
2019-05-14T08:24:08.850Z,99.90
2019-05-14T08:26:38.173Z,99.10
2019-05-14T08:29:08.633Z,99.90
2019-05-14T08:31:38.324Z,99.90
2019-05-14T08:34:09.121Z,99.00
2019-05-14T08:36:37.954Z,98.70
2019-05-14T08:39:08.822Z,98.70
2019-05-14T08:41:38.371Z,98.90
2019-05-14T08:44:08.540Z,98.60
2019-05-14T08:46:38.907Z,99.30
2019-05-14T08:49:08.953Z,98.30
2019-05-14T08:51:38.825Z,97.90
2019-05-14T08:54:08.271Z,99.00
2019-05-14T08:56:39.007Z,99.90
2019-05-14T08:59:08.736Z,98.90
2019-05-14T09:01:38.690Z,99.50
2019-05-14T09:04:09.066Z,98.40
2019-05-14T09:06:38.504Z,98.10
2019-05-14T09:09:09.462Z,96.90
2019-05-14T09:11:44.701Z,96.90
2019-05-14T09:14:10.928Z,97.90
2019-05-14T09:16:46.447Z,97.50
2019-05-14T09:19:08.817Z,96.00
2019-05-14T09:21:39.728Z,96.80
2019-05-14T09:24:09.546Z,93.10
2019-05-14T09:26:39.043Z,92.30
2019-05-14T09:29:19.471Z,92.70
2019-05-14T09:31:39.096Z,91.10
2019-05-14T09:34:09.194Z,91.60
2019-05-14T09:36:39.556Z,90.70
2019-05-14T09:39:11.977Z,89.50
2019-05-14T09:41:38.878Z,88.90
2019-05-14T09:44:09.282Z,89.20
2019-05-14T09:46:38.473Z,84.90
2019-05-14T09:49:08.023Z,81.40
2019-05-14T09:51:38.407Z,81.10
2019-05-14T09:54:08.613Z,80.60
2019-05-14T09:56:39.439Z,79.00
2019-05-14T09:59:09.158Z,80.20
2019-05-14T10:01:38.337Z,74.90
2019-05-14T10:04:09.032Z,75.30
2019-05-14T10:06:39.235Z,76.90
2019-05-14T10:09:08.552Z,76.20
2019-05-14T10:11:38.375Z,75.80
2019-05-14T10:14:08.021Z,72.60
2019-05-14T10:16:38.555Z,73.40
2019-05-14T10:19:06.771Z,74.80
2019-05-14T10:21:35.234Z,77.10
2019-05-14T10:24:03.679Z,76.00
2019-05-14T10:26:32.702Z,74.60
2019-05-14T10:29:03.840Z,74.80
2019-05-14T10:31:33.864Z,72.00
2019-05-14T10:34:05.074Z,72.60
2019-05-14T10:36:33.775Z,71.10
2019-05-14T10:39:05.304Z,71.20
2019-05-14T10:41:33.782Z,73.20
2019-05-14T10:44:03.796Z,70.50
2019-05-14T10:46:33.856Z,67.10
2019-05-14T10:49:16.346Z,69.90
2019-05-14T10:51:33.976Z,68.60
2019-05-14T10:54:18.867Z,70.90
2019-05-14T10:56:33.580Z,69.20
2019-05-14T10:59:02.368Z,66.60
2019-05-14T11:01:30.812Z,68.20
2019-05-14T11:03:59.256Z,67.10
2019-05-14T11:06:29.371Z,64.70
2019-05-14T11:09:18.080Z,67.90
2019-05-14T11:12:02.321Z,73.40
2019-05-14T11:14:32.441Z,67.50
2019-05-14T11:17:01.348Z,65.00
2019-05-14T11:19:29.851Z,67.80
2019-05-14T11:21:58.311Z,67.40
2019-05-14T11:24:29.543Z,70.00
2019-05-14T11:26:59.043Z,66.40
2019-05-14T11:29:49.128Z,64.50
2019-05-14T11:32:18.443Z,64.40
2019-05-14T11:34:47.215Z,64.00
2019-05-14T11:37:15.652Z,66.80
2019-05-14T11:39:44.115Z,61.70
2019-05-14T11:42:12.522Z,62.80
2019-05-14T11:44:40.964Z,60.80
2019-05-14T11:47:09.467Z,62.70
2019-05-14T11:49:38.441Z,64.10
2019-05-14T11:52:28.575Z,66.70
2019-05-14T11:54:58.384Z,61.70
2019-05-14T11:57:26.598Z,64.70
2019-05-14T11:59:55.032Z,63.60
2019-05-14T12:02:23.449Z,64.70
2019-05-14T12:04:51.943Z,62.50
2019-05-14T12:07:39.723Z,63.30
2019-05-14T12:10:09.068Z,61.00
2019-05-14T12:12:37.808Z,62.60
2019-05-14T12:15:08.849Z,61.10
2019-05-14T12:17:39.303Z,65.40
2019-05-14T12:20:08.166Z,62.00
2019-05-14T12:22:39.035Z,63.70
2019-05-14T12:25:08.232Z,62.00
2019-05-14T12:27:58.746Z,61.30
2019-05-14T12:30:28.566Z,61.90
2019-05-14T12:33:15.787Z,65.40
2019-05-14T12:35:44.215Z,63.80
2019-05-14T12:38:12.656Z,63.80
2019-05-14T12:40:41.229Z,65.80
2019-05-14T12:43:09.794Z,66.50
2019-05-14T12:45:47.036Z,66.40
2019-05-14T12:48:15.466Z,68.70
2019-05-14T12:51:03.328Z,67.50
2019-05-14T12:53:34.612Z,67.50
2019-05-14T12:56:03.476Z,66.60
2019-05-14T12:58:34.579Z,67.90
2019-05-14T13:01:03.092Z,66.20
2019-05-14T13:03:33.125Z,67.00
2019-05-14T13:06:03.124Z,66.40
2019-05-14T13:08:33.165Z,65.00
2019-05-14T13:11:04.257Z,64.60
2019-05-14T13:13:32.872Z,65.60
2019-05-14T13:16:04.262Z,66.20
2019-05-14T13:18:33.146Z,67.00
2019-05-14T13:21:03.229Z,64.70
2019-05-14T13:23:34.623Z,66.70
2019-05-14T13:26:03.090Z,66.50
2019-05-14T13:28:33.095Z,65.40
2019-05-14T13:31:03.116Z,65.10
2019-05-14T13:33:33.120Z,63.40
2019-05-14T13:36:03.183Z,65.10
2019-05-14T13:38:34.805Z,64.70
2019-05-14T13:41:09.547Z,63.60
2019-05-14T13:43:39.024Z,62.50
2019-05-14T13:46:10.369Z,63.30
2019-05-14T13:48:42.824Z,63.20
2019-05-14T13:51:09.089Z,64.80
2019-05-14T13:53:39.102Z,69.40
2019-05-14T13:56:29.018Z,65.20
2019-05-14T13:58:59.098Z,65.20
2019-05-14T14:01:29.705Z,63.50
2019-05-14T14:04:06.752Z,65.10
2019-05-14T14:06:28.052Z,64.10
2019-05-14T14:08:59.111Z,62.70
2019-05-14T14:11:31.049Z,63.80
2019-05-14T14:13:58.472Z,63.10
2019-05-14T14:16:28.696Z,64.80
2019-05-14T14:19:02.603Z,65.70
2019-05-14T14:21:29.791Z,63.70
2019-05-14T14:23:59.273Z,61.20
2019-05-14T14:26:29.153Z,61.90
2019-05-14T14:29:00.001Z,64.10
2019-05-14T14:31:28.497Z,63.90
2019-05-14T14:33:57.108Z,62.10
2019-05-14T14:36:25.869Z,62.00
2019-05-14T14:38:54.318Z,62.30
2019-05-14T14:41:22.768Z,61.70
2019-05-14T14:43:54.419Z,62.30
2019-05-14T14:46:21.595Z,63.00
2019-05-14T14:48:50.043Z,61.50
2019-05-14T14:51:19.304Z,62.60
2019-05-14T14:53:58.753Z,62.60
2019-05-14T14:56:18.928Z,62.50
2019-05-14T14:58:49.400Z,62.20
2019-05-14T15:01:19.502Z,62.10
2019-05-14T15:03:49.592Z,62.80
2019-05-14T15:06:18.275Z,63.50
2019-05-14T15:08:49.390Z,62.30
2019-05-14T15:11:16.921Z,63.20
2019-05-14T15:13:45.353Z,60.40
2019-05-14T15:16:14.222Z,61.40
2019-05-14T15:18:42.834Z,62.20
2019-05-14T15:21:11.254Z,62.60
2019-05-14T15:23:43.090Z,61.70
2019-05-14T15:26:12.104Z,61.40
2019-05-14T15:28:40.024Z,62.70
2019-05-14T15:31:08.981Z,61.20
2019-05-14T15:33:37.536Z,61.40
2019-05-14T15:36:08.797Z,60.70
2019-05-14T15:38:36.176Z,60.70
2019-05-14T15:41:04.618Z,60.20
2019-05-14T15:43:33.075Z,60.30
2019-05-14T15:46:03.028Z,62.60
2019-05-14T15:48:31.964Z,60.40
2019-05-14T15:51:03.444Z,61.70
2019-05-14T15:53:34.618Z,65.40
2019-05-14T15:56:03.043Z,61.10
2019-05-14T15:58:31.740Z,62.10
2019-05-14T16:01:01.912Z,60.90
2019-05-14T16:03:31.419Z,61.20
2019-05-14T16:06:00.546Z,59.60
2019-05-14T16:08:29.635Z,60.70
2019-05-14T16:11:00.368Z,61.40
2019-05-14T16:13:49.344Z,60.50
2019-05-14T16:16:19.386Z,61.20
2019-05-14T16:18:48.283Z,59.30
2019-05-14T16:21:18.262Z,60.60
2019-05-14T16:23:46.956Z,62.20
2019-05-14T16:26:15.465Z,61.90
2019-05-14T16:28:43.941Z,62.60
2019-05-14T16:31:12.465Z,62.60
2019-05-14T16:33:40.958Z,63.10
2019-05-14T16:36:09.411Z,60.60
2019-05-14T16:38:39.522Z,61.10
2019-05-14T16:41:08.151Z,61.10
2019-05-14T16:43:58.570Z,61.30
2019-05-14T16:46:28.724Z,61.70
2019-05-14T16:48:58.237Z,61.50
2019-05-14T16:51:26.495Z,60.90
2019-05-14T16:53:55.057Z,61.50
2019-05-14T16:56:23.554Z,60.40
2019-05-14T16:58:51.989Z,60.70
2019-05-14T17:01:20.471Z,60.10
2019-05-14T17:03:49.354Z,60.30
2019-05-14T17:06:18.769Z,60.90
2019-05-14T17:08:48.949Z,60.60
2019-05-14T17:11:18.273Z,61.30
2019-05-14T17:13:48.915Z,61.60
2019-05-14T17:16:19.634Z,60.50
2019-05-14T17:18:48.598Z,61.20
2019-05-14T17:21:18.286Z,61.50
2019-05-14T17:23:48.958Z,60.10
2019-05-14T17:26:17.873Z,60.00
2019-05-14T17:28:48.651Z,59.40
2019-05-14T17:31:18.896Z,59.60
2019-05-14T17:33:49.318Z,59.60
2019-05-14T17:36:18.750Z,59.80
2019-05-14T17:38:49.206Z,60.00
2019-05-14T17:41:19.539Z,59.70
2019-05-14T17:43:49.259Z,60.00
2019-05-14T17:46:18.466Z,61.50
2019-05-14T17:48:48.632Z,59.60
2019-05-14T17:51:18.100Z,60.20
2019-05-14T17:53:48.105Z,59.00
2019-05-14T17:56:18.871Z,61.00
2019-05-14T17:58:57.845Z,59.20
2019-05-14T18:01:26.025Z,61.00
2019-05-14T18:03:54.457Z,59.20
2019-05-14T18:06:22.918Z,59.80
2019-05-14T18:08:51.367Z,60.70
2019-05-14T18:11:19.831Z,60.90
2019-05-14T18:13:48.671Z,61.40
2019-05-14T18:16:19.167Z,61.20
2019-05-14T18:18:49.448Z,62.90
2019-05-14T18:21:38.954Z,63.00
2019-05-14T18:24:07.652Z,63.60
2019-05-14T18:26:38.468Z,63.10
2019-05-14T18:29:08.637Z,63.50
2019-05-14T18:31:43.219Z,63.60
2019-05-14T18:34:06.796Z,63.40
2019-05-14T18:36:35.280Z,64.10
2019-05-14T18:39:04.663Z,64.30
2019-05-14T18:41:33.111Z,64.30
2019-05-14T18:44:03.087Z,63.50
2019-05-14T18:46:33.152Z,64.00
2019-05-14T18:49:03.167Z,65.20
2019-05-14T18:51:32.276Z,63.50
2019-05-14T18:54:09.656Z,63.90
2019-05-14T18:56:38.533Z,63.90
2019-05-14T18:59:08.952Z,64.70
2019-05-14T19:01:39.635Z,65.70
2019-05-14T19:04:08.235Z,65.40
2019-05-14T19:06:38.923Z,65.70
2019-05-14T19:09:10.489Z,65.60
2019-05-14T19:11:38.810Z,66.30
2019-05-14T19:14:09.004Z,66.70
2019-05-14T19:16:38.291Z,66.90
2019-05-14T19:19:08.045Z,67.00
2019-05-14T19:21:38.231Z,67.10
2019-05-14T19:24:08.946Z,68.60
2019-05-14T19:26:40.272Z,68.40
2019-05-14T19:29:08.653Z,68.80
2019-05-14T19:34:42.368Z,69.60
2019-05-14T19:37:10.909Z,70.30
2019-05-14T19:39:39.592Z,70.40
2019-05-14T19:42:08.706Z,71.10
2019-05-14T19:44:37.325Z,71.30
2019-05-14T19:47:05.768Z,71.50
2019-05-14T19:49:34.277Z,71.60
2019-05-14T19:52:02.725Z,72.30
2019-05-14T19:54:31.644Z,73.00
2019-05-14T19:57:02.241Z,72.50
2019-05-14T19:59:32.341Z,73.20
2019-05-14T20:02:01.497Z,73.60
2019-05-14T20:04:30.308Z,73.40
2019-05-14T20:06:58.749Z,74.50
2019-05-14T20:09:28.118Z,73.80
2019-05-14T20:11:58.147Z,74.10
2019-05-14T20:14:28.577Z,75.20
2019-05-14T20:16:58.282Z,76.20
2019-05-14T20:19:28.647Z,76.30
2019-05-14T20:21:58.805Z,76.60
2019-05-14T20:24:28.333Z,77.20
2019-05-14T20:27:05.721Z,77.30
2019-05-14T20:29:27.261Z,78.00
2019-05-14T20:31:55.960Z,78.00
2019-05-14T20:34:24.377Z,78.00
2019-05-14T20:36:52.807Z,78.50
2019-05-14T20:39:33.611Z,78.40
2019-05-14T20:42:09.222Z,78.70
2019-05-14T20:44:38.603Z,79.00
2019-05-14T20:47:09.122Z,79.40
2019-05-14T20:49:38.008Z,79.60
2019-05-14T20:52:08.536Z,80.40
2019-05-14T20:54:58.315Z,80.70
2019-05-14T20:57:31.252Z,80.80
2019-05-14T20:59:58.753Z,83.00
2019-05-14T21:02:29.292Z,83.40
2019-05-14T21:05:03.774Z,84.50
2019-05-14T21:07:28.867Z,84.60
2019-05-14T21:09:57.557Z,86.30
2019-05-14T21:12:28.730Z,86.90
2019-05-14T21:14:56.156Z,87.20
2019-05-14T21:17:24.593Z,88.60
2019-05-14T21:19:58.872Z,90.00
2019-05-14T21:22:29.108Z,89.00
2019-05-14T21:25:12.819Z,89.80
2019-05-14T21:30:43.381Z,90.20
2019-05-14T21:33:17.688Z,90.40
2019-05-14T21:35:48.363Z,90.60
2019-05-14T21:38:16.268Z,91.00
2019-05-14T21:40:44.694Z,91.90
2019-05-14T21:43:13.118Z,92.10
2019-05-14T21:45:41.546Z,91.80
2019-05-14T21:48:10.025Z,91.90
2019-05-14T21:50:38.880Z,92.10
2019-05-14T21:53:08.361Z,92.50
2019-05-14T21:55:38.848Z,92.90
2019-05-14T21:58:09.072Z,93.40
2019-05-14T22:00:59.279Z,94.00
2019-05-14T22:03:28.476Z,94.10
2019-05-14T22:05:59.191Z,94.50
2019-05-14T22:08:27.848Z,95.30
2019-05-14T22:10:58.514Z,97.30
2019-05-14T22:13:28.402Z,97.10
2019-05-14T22:15:58.918Z,97.00
2019-05-14T22:18:48.362Z,97.90
2019-05-14T22:21:18.338Z,99.10
2019-05-14T22:23:48.198Z,99.90
2019-05-14T22:26:18.598Z,99.90
2019-05-14T22:28:47.924Z,99.90
2019-05-14T22:31:17.161Z,99.90
2019-05-14T22:33:46.541Z,99.90
2019-05-14T22:36:20.957Z,99.90
2019-05-14T22:38:48.094Z,99.90
2019-05-14T22:41:18.167Z,99.90
2019-05-14T22:43:46.080Z,99.90
2019-05-14T22:46:14.489Z,99.90
2019-05-14T22:48:42.926Z,99.90
2019-05-14T22:51:11.349Z,99.90
2019-05-14T22:53:39.788Z,99.90
2019-05-14T22:56:08.430Z,99.90
2019-05-14T22:58:38.369Z,99.90
2019-05-14T23:01:14.942Z,99.90
2019-05-14T23:03:39.544Z,99.90
2019-05-14T23:06:09.029Z,99.90
2019-05-14T23:08:39.102Z,99.90
2019-05-14T23:11:08.646Z,99.90
2019-05-14T23:13:39.177Z,99.90
2019-05-14T23:16:08.227Z,99.90
2019-05-14T23:18:38.073Z,99.90
2019-05-14T23:21:08.894Z,99.90
2019-05-14T23:23:39.126Z,99.90
2019-05-14T23:26:08.620Z,99.90
2019-05-14T23:28:44.459Z,99.90
2019-05-14T23:31:08.494Z,99.90
2019-05-14T23:33:38.845Z,99.90
2019-05-14T23:36:08.747Z,99.90
2019-05-14T23:38:38.969Z,99.90
2019-05-14T23:41:08.624Z,99.90
2019-05-14T23:43:39.173Z,99.90
2019-05-14T23:46:09.307Z,99.90
2019-05-14T23:48:39.254Z,99.90
2019-05-14T23:51:08.168Z,99.90
2019-05-14T23:53:39.162Z,99.90
2019-05-14T23:56:09.848Z,99.90
2019-05-14T23:58:38.402Z,99.90
